Terminal Aerodrome Forecast
Issued by NWS

Home | Current Version | Previous Version | Text Only | Print | Product List | Glossary On
Versions: 1 2 3 4 5 6 7 8 9 10 11 12 13 14 15 16 17 18 19 20
000
FTUS45 KTFX 281732
TAFLWT
TAF
KLWT 281732Z 2818/2918 08008KT 6SM -RASN BR SCT015 OVC035
      TEMPO 2818/2820 4SM -SNRA BR BKN012
     FM282000 09011KT P6SM VCSH SCT025 OVC045
      TEMPO 2820/2824 -SHRA BKN020
     FM290200 10007KT P6SM VCSH SCT015 OVC025
     FM290600 11007KT P6SM VCFG SCT007 OVC012=

USA.gov is the U.S. government's official web portal to all federal, state and local government web resources and services.